Etusivu
METAR-TAF:

METAR-TAF

Lentoasemat :

Mosjøen, Norja

Leveyspiiri: 65-48N, Pituuspiiri: 013-08E, korkeus merenpinnasta: 70 m

Tämänhetkinen sää

Tämä raportti tehtiin 17 minuuttia sitten, kello 13.20 UTC
Tuuli 6 kn etelästä/lounaasta, vaihdellen etelän/kaakon ja lännen välillä
Lämpötila 21°C
Kosteus 18%
Ilmanpaine 1025 hPa
Näkyvyys 10 km tai enemmän
ei pilviä alle 1500 m:ssä eikä cumulonimbus-pilviä

METAR: ENMS 241320Z 20006KT 150V260 CAVOK 21/M04 Q1025 RMK WIND 412FT 24006KT 170V290

Aika: 15:37 (13:37 UTC)


TAF: puuttuu

Säähavainnot ja -ennusteet yli 4000 lentoasemalta (METAR- ja TAF-raportit).

Käytössä olevat sääasemat on merkitty karttaan keltaisilla ja punaisilla pisteillä.

Aseta hiiri pisteen päälle nähdäksesi sääaseman nimen.

Klikkaa sitten nähdäksesi säähavainnot ja -ennusteet.

Kartan vaihtaminen: klikkaa mustalla rastilla varustettuja vihreitä pisteitä, niin voit zoomata sisään; viivalla varustettua vihreää pistettä, niin voit zoomata ulos tai vihreitä nuolia, niin pääset viereisille kartoille.


METAR-TAF: